Time;durP1;ratioP1;P1;durP2;ratioP2;P2;SDS_P1;SDS_P2;PMS_P1;PMS_P2;Temp;Humidity;BMP_temperature;BMP_pressure;BME280_temperature;BME280_humidity;BME280_pressure;Samples;Min_cycle;Max_cycle;Signal;HPM_P1;HPM_P2
2021/11/03 06:02:32;;;;;;;34.55;15.20;;;;;;;1.76;82.11;99071.25;5004113;28;106986;-69
2021/11/03 06:04:57;;;;;;;37.00;18.45;;;;;;;1.80;82.35;99073.44;5005148;28;106008;-62
2021/11/03 06:07:23;;;;;;;32.70;19.23;;;;;;;1.90;82.50;99072.59;5004129;28;106253;-69
2021/11/03 06:09:48;;;;;;;35.42;18.40;;;;;;;2.01;82.57;99080.34;5003907;28;105874;-60
2021/11/03 06:12:14;;;;;;;31.90;16.35;;;;;;;2.16;82.87;99089.41;5004065;28;106230;-64
2021/11/03 06:14:40;;;;;;;33.70;18.95;;;;;;;2.31;82.81;99096.81;5004520;28;105985;-60
2021/11/03 06:17:06;;;;;;;29.75;16.23;;;;;;;2.45;82.77;99090.28;5004757;28;106207;-61
2021/11/03 06:19:31;;;;;;;29.08;16.13;;;;;;;2.56;82.92;99090.06;5004579;28;107264;-67
2021/11/03 06:21:57;;;;;;;34.10;15.65;;;;;;;2.66;82.58;99096.09;5004037;28;105954;-60
2021/11/03 06:24:24;;;;;;;30.25;15.65;;;;;;;2.77;83.06;99096.91;5004717;28;105960;-61
2021/11/03 06:26:50;;;;;;;32.83;18.02;;;;;;;2.94;83.03;99095.25;5004723;28;105816;-60
2021/11/03 06:29:15;;;;;;;32.55;16.67;;;;;;;3.10;82.78;99091.97;5004300;28;105885;-62
2021/11/03 06:31:41;;;;;;;29.23;16.77;;;;;;;3.29;83.29;99097.09;5004302;28;107161;-68
2021/11/03 06:34:07;;;;;;;23.63;16.48;;;;;;;3.52;83.36;99108.00;5004977;28;105954;-63
2021/11/03 06:36:36;;;;;;;24.73;14.80;;;;;;;3.76;83.23;99103.94;5004106;28;106192;-64
2021/11/03 06:39:06;;;;;;;19.77;12.52;;;;;;;4.01;83.34;99094.38;5003521;28;106224;-61
2021/11/03 06:41:34;;;;;;;22.88;12.70;;;;;;;4.24;83.06;99109.69;5004019;28;105702;-62
2021/11/03 06:44:00;;;;;;;21.33;12.95;;;;;;;4.49;83.64;99104.53;5004751;28;105802;-62
2021/11/03 06:46:25;;;;;;;30.70;19.35;;;;;;;4.74;83.84;99108.94;5004025;28;106324;-63
2021/11/03 06:48:50;;;;;;;27.73;16.98;;;;;;;5.12;84.11;99102.44;5003930;28;106637;-61
2021/11/03 06:51:16;;;;;;;21.08;13.35;;;;;;;5.48;84.42;99100.38;5003329;28;106443;-61
2021/11/03 06:53:41;;;;;;;23.52;13.45;;;;;;;5.84;84.18;99096.56;5004307;28;106026;-62
2021/11/03 06:56:07;;;;;;;22.25;14.07;;;;;;;6.20;84.23;99101.50;5003365;28;106140;-62
2021/11/03 06:58:33;;;;;;;19.27;13.20;;;;;;;6.59;84.06;99109.47;5002911;28;106347;-71
2021/11/03 07:00:59;;;;;;;17.83;12.60;;;;;;;7.04;83.81;99107.13;5002360;28;108064;-65
2021/11/03 07:03:26;;;;;;;22.50;13.60;;;;;;;7.51;83.90;99118.59;5004349;28;105892;-69
2021/11/03 07:05:53;;;;;;;17.95;12.60;;;;;;;7.94;83.04;99118.06;5003661;28;106375;-63
2021/11/03 07:08:20;;;;;;;19.67;12.05;;;;;;;8.42;82.78;99118.59;5003517;28;105944;-63
2021/11/03 07:10:48;;;;;;;17.27;11.73;;;;;;;8.89;82.54;99118.44;5003290;28;106087;-63
2021/11/03 07:13:15;;;;;;;16.23;11.25;;;;;;;9.24;81.03;99116.81;4994227;28;105854;-63
2021/11/03 07:15:41;;;;;;;18.17;10.82;;;;;;;9.44;79.97;99118.84;4990065;28;106199;-63
2021/11/03 07:18:08;;;;;;;19.08;9.82;;;;;;;9.62;79.55;99126.38;4990001;28;106403;-63
2021/11/03 07:20:34;;;;;;;14.25;9.70;;;;;;;9.63;78.26;99118.19;4989642;28;106179;-62
2021/11/03 07:23:00;;;;;;;18.70;9.80;;;;;;;9.71;77.22;99111.94;4987880;28;106132;-61
2021/11/03 07:25:26;;;;;;;18.98;10.07;;;;;;;9.73;77.19;99122.38;4990177;28;106031;-64
2021/11/03 07:27:54;;;;;;;15.50;10.25;;;;;;;9.92;78.24;99126.22;4988889;28;107524;-61
2021/11/03 07:30:21;;;;;;;15.43;9.20;;;;;;;10.31;78.73;99136.34;4985447;28;105944;-62
2021/11/03 07:32:47;;;;;;;13.45;9.02;;;;;;;10.61;77.57;99133.50;4989526;28;105957;-62
2021/11/03 07:35:12;;;;;;;14.48;9.60;;;;;;;10.94;78.12;99137.34;4989905;28;105967;-62
2021/11/03 07:37:38;;;;;;;13.88;8.82;;;;;;;11.26;77.04;99137.66;4989131;28;106151;-64
2021/11/03 07:40:06;;;;;;;12.23;8.35;;;;;;;11.59;76.97;99134.25;4989772;28;105840;-63
2021/11/03 07:42:32;;;;;;;13.23;8.63;;;;;;;11.76;75.11;99138.16;4990318;28;106080;-63
2021/11/03 07:44:57;;;;;;;17.85;8.75;;;;;;;12.11;75.12;99143.34;5000494;28;106131;-63
2021/11/03 07:47:23;;;;;;;13.75;8.25;;;;;;;12.47;74.18;99152.75;4995082;28;105975;-64
2021/11/03 07:49:48;;;;;;;18.35;9.48;;;;;;;13.44;74.57;99144.00;4989965;28;107371;-63
2021/11/03 07:52:15;;;;;;;12.57;7.50;;;;;;;14.88;73.88;99156.66;4991025;28;105814;-65
2021/11/03 07:54:40;;;;;;;11.40;6.82;;;;;;;16.66;74.72;99157.13;4990130;28;106268;-70
2021/11/03 07:57:06;;;;;;;11.45;6.22;;;;;;;18.18;71.46;99158.66;4989958;28;107498;-63
2021/11/03 07:59:31;;;;;;;11.50;6.25;;;;;;;19.60;69.72;99159.97;4990098;28;105870;-64
2021/11/03 08:01:57;;;;;;;11.27;6.00;;;;;;;20.00;63.59;99167.91;4990643;28;105891;-62
2021/11/03 08:04:23;;;;;;;8.55;5.65;;;;;;;19.99;62.33;99175.19;4925707;27;105904;-62
2021/11/03 08:06:48;;;;;;;11.27;7.55;;;;;;;20.27;61.50;99182.19;4926463;28;108739;-61
2021/11/03 08:09:14;;;;;;;8.38;5.55;;;;;;;20.07;57.83;99179.34;4909652;28;106329;-65
2021/11/03 08:11:48;;;;;;;6.78;5.07;;;;;;;20.13;58.52;99183.69;4909843;28;106459;-66
2021/11/03 08:14:15;;;;;;;7.90;5.45;;;;;;;20.52;58.47;99182.66;4908998;28;106298;-64
2021/11/03 08:16:53;;;;;;;6.88;4.90;;;;;;;21.71;58.50;99173.97;4908800;28;106596;-62
2021/11/03 08:19:22;;;;;;;8.40;4.80;;;;;;;23.38;56.89;99173.44;4909013;28;106493;-64
2021/11/03 08:21:47;;;;;;;6.78;4.93;;;;;;;24.82;51.78;99180.47;4909781;28;106352;-62
2021/11/03 08:24:13;;;;;;;7.80;4.60;;;;;;;26.25;48.36;99179.59;4908160;28;106336;-61
2021/11/03 08:26:38;;;;;;;6.55;4.43;;;;;;;27.68;44.42;99183.38;4908870;28;112471;-66
2021/11/03 08:29:03;;;;;;;4.85;3.60;;;;;;;28.73;39.75;99190.69;4909710;28;106379;-61
2021/11/03 08:31:29;;;;;;;6.38;4.15;;;;;;;28.93;38.38;99195.59;4911722;28;105989;-63
2021/11/03 08:33:55;;;;;;;6.57;4.28;;;;;;;29.60;36.15;99203.84;4911586;28;106268;-64
2021/11/03 08:36:20;;;;;;;5.15;4.05;;;;;;;29.95;35.39;99192.88;4910934;28;106823;-63
2021/11/03 08:38:48;;;;;;;6.80;4.47;;;;;;;30.47;31.39;99202.97;4910651;28;106744;-62
2021/11/03 08:41:14;;;;;;;9.73;5.07;;;;;;;31.14;29.66;99197.88;4911411;28;105878;-68
2021/11/03 08:43:43;;;;;;;6.47;4.50;;;;;;;31.25;28.27;99199.13;4910784;28;106818;-61
2021/11/03 08:46:09;;;;;;;;;;;;;;;32.54;26.44;99197.53;4909971;28;106377;-68
2021/11/03 08:48:34;;;;;;;6.15;4.45;;;;;;;32.54;24.37;99205.00;4910630;28;105937;-67
2021/11/03 08:51:00;;;;;;;5.60;4.40;;;;;;;32.50;23.95;99201.31;4911183;28;105976;-58
2021/11/03 08:53:26;;;;;;;5.47;3.80;;;;;;;32.28;22.80;99200.56;4917983;28;106097;-63
2021/11/03 08:55:53;;;;;;;5.78;4.25;;;;;;;32.62;22.58;99195.03;4928628;28;106438;-65
2021/11/03 08:58:21;;;;;;;7.28;4.35;;;;;;;33.38;21.34;99196.31;4929042;28;106011;-63
2021/11/03 09:00:49;;;;;;;4.38;3.22;;;;;;;33.64;20.29;99189.59;4929624;28;106007;-65
2021/11/03 09:03:14;;;;;;;5.10;3.42;;;;;;;33.51;21.07;99194.31;4929157;28;106474;-66
2021/11/03 09:05:41;;;;;;;4.82;2.97;;;;;;;34.43;19.97;99192.94;4927982;28;106507;-66
2021/11/03 09:08:08;;;;;;;4.85;3.33;;;;;;;35.02;19.21;99197.59;4928174;28;106959;-61
2021/11/03 09:10:40;;;;;;;4.65;3.10;;;;;;;35.93;18.95;99181.00;4929410;28;106122;-59
2021/11/03 09:13:06;;;;;;;5.57;3.72;;;;;;;35.41;18.58;99189.41;4928419;28;106398;-64
2021/11/03 09:15:31;;;;;;;4.55;3.60;;;;;;;35.38;18.35;99190.13;4928628;28;106113;-63
2021/11/03 09:17:57;;;;;;;3.97;3.10;;;;;;;34.94;18.15;99195.84;4926951;28;106871;-61
2021/11/03 09:20:24;;;;;;;4.28;3.15;;;;;;;34.78;18.34;99192.25;4928957;28;106279;-59
2021/11/03 09:22:50;;;;;;;4.40;3.35;;;;;;;35.53;17.83;99182.94;4928799;28;106301;-61
2021/11/03 09:25:19;;;;;;;4.60;3.17;;;;;;;36.46;16.86;99183.16;4928446;28;106998;-61
2021/11/03 09:27:46;;;;;;;3.63;2.60;;;;;;;36.33;16.91;99187.28;4928331;28;107809;-64
2021/11/03 09:30:15;;;;;;;5.75;3.08;;;;;;;35.59;17.03;99187.00;4927305;28;106516;-68
2021/11/03 09:32:43;;;;;;;5.10;3.00;;;;;;;35.59;16.70;99187.00;4928569;28;106538;-64
2021/11/03 09:35:10;;;;;;;5.07;2.47;;;;;;;35.46;16.88;99187.50;4927919;28;106384;-63
2021/11/03 09:37:37;;;;;;;4.50;2.60;;;;;;;36.05;16.48;99186.38;4928791;28;106194;-59
2021/11/03 09:40:05;;;;;;;4.15;2.42;;;;;;;36.64;15.94;99180.69;4929065;28;106102;-63
2021/11/03 09:42:31;;;;;;;3.70;2.45;;;;;;;36.56;15.48;99182.53;4927554;28;106260;-65
2021/11/03 09:44:56;;;;;;;4.45;2.42;;;;;;;36.38;15.87;99187.78;4928197;28;106413;-59
2021/11/03 09:47:29;;;;;;;4.30;2.10;;;;;;;36.42;15.38;99191.41;4927683;28;106023;-66
2021/11/03 09:49:58;;;;;;;3.10;1.98;;;;;;;36.21;15.08;99188.22;4928822;28;105900;-67
2021/11/03 09:52:35;;;;;;;2.72;1.75;;;;;;;35.53;15.21;99173.84;4927704;28;107212;-59
2021/11/03 09:55:33;;;;;;;3.70;2.33;;;;;;;35.29;15.37;99178.41;4928457;28;105985;-59
2021/11/03 09:58:22;;;;;;;3.58;1.77;;;;;;;35.55;15.49;99165.94;4921416;28;106943;-59
2021/11/03 10:00:55;;;;;;;3.83;2.25;;;;;;;35.47;15.16;99167.75;4912000;28;106609;-70
2021/11/03 10:03:23;;;;;;;5.03;2.60;;;;;;;36.51;14.81;99170.97;4908616;28;106238;-69
2021/11/03 10:06:13;;;;;;;2.65;2.00;;;;;;;36.79;13.96;99175.38;4909077;28;106226;-63
2021/11/03 10:08:47;;;;;;;2.55;1.83;;;;;;;36.39;14.39;99166.41;4909771;28;106125;-67
2021/11/03 10:11:21;;;;;;;3.17;2.13;;;;;;;36.35;14.23;99165.56;4910254;28;106027;-68
2021/11/03 10:13:48;;;;;;;2.70;1.73;;;;;;;36.15;14.31;99162.00;4909373;28;106244;-65
2021/11/03 10:16:16;;;;;;;2.00;1.60;;;;;;;36.12;14.47;99166.31;4909659;28;106769;-64
2021/11/03 10:18:54;;;;;;;2.60;1.77;;;;;;;36.48;14.47;99160.63;4906904;28;106412;-60
2021/11/03 10:21:21;;;;;;;4.28;2.20;;;;;;;36.67;14.52;99154.97;4908141;28;106138;-60
2021/11/03 10:23:56;;;;;;;3.70;1.80;;;;;;;37.21;13.74;99146.66;4907581;28;106223;-62
2021/11/03 10:26:25;;;;;;;3.70;2.00;;;;;;;37.38;13.60;99154.47;4908471;28;106017;-60
2021/11/03 10:29:09;;;;;;;2.80;1.80;;;;;;;36.34;13.91;99152.84;4909060;28;105857;-61
2021/11/03 10:31:42;;;;;;;2.85;2.00;;;;;;;35.63;14.49;99142.78;4909829;28;105871;-60
2021/11/03 10:34:25;;;;;;;5.22;2.00;;;;;;;35.84;14.59;99152.69;4909645;28;105973;-59
2021/11/03 10:37:24;;;;;;;3.17;2.00;;;;;;;36.01;14.35;99135.63;4909226;28;108548;-62
2021/11/03 10:39:57;;;;;;;3.90;2.20;;;;;;;36.06;14.35;99137.28;4907331;28;106102;-59
2021/11/03 10:42:40;;;;;;;3.47;2.00;;;;;;;36.06;14.43;99135.31;4909719;28;105994;-60
2021/11/03 10:45:21;;;;;;;3.45;2.15;;;;;;;36.82;13.91;99127.50;4909401;28;105852;-60
2021/11/03 10:47:54;;;;;;;4.18;2.15;;;;;;;38.35;13.24;99126.97;4909930;28;106701;-60
2021/11/03 10:50:31;;;;;;;2.47;1.80;;;;;;;38.61;13.24;99122.41;4912419;28;106624;-60
2021/11/03 10:53:16;;;;;;;3.25;1.80;;;;;;;39.65;12.44;99122.19;4920089;28;106088;-61
2021/11/03 10:56:15;;;;;;;2.55;1.70;;;;;;;39.25;11.88;99133.16;4930422;28;106457;-59
2021/11/03 10:58:49;;;;;;;2.53;1.67;;;;;;;38.78;12.29;99125.72;4930094;28;106107;-59
2021/11/03 11:01:23;;;;;;;3.70;2.67;;;;;;;39.14;12.49;99120.34;4929412;28;106278;-59
2021/11/03 11:03:57;;;;;;;3.90;2.38;;;;;;;38.54;12.32;99111.22;4931260;28;106333;-60
2021/11/03 11:06:27;;;;;;;6.07;1.90;;;;;;;38.91;12.43;99107.50;4930332;28;106148;-60
2021/11/03 11:09:10;;;;;;;3.55;2.35;;;;;;;39.29;12.19;99116.47;4918295;28;106718;-61
2021/11/03 11:11:40;;;;;;;4.07;2.00;;;;;;;39.37;12.25;99106.97;4913997;28;105965;-61
2021/11/03 11:14:20;;;;;;;4.00;2.13;;;;;;;39.35;12.73;99114.91;4912463;28;106205;-61
2021/11/03 11:17:00;;;;;;;2.53;1.77;;;;;;;38.22;12.99;99112.53;4929042;28;106202;-64
2021/11/03 11:19:40;;;;;;;3.30;2.00;;;;;;;37.59;13.27;99117.84;4929946;28;106056;-63
2021/11/03 11:22:24;;;;;;;3.05;1.75;;;;;;;37.51;13.42;99107.00;4929800;28;106319;-62
2021/11/03 11:24:55;;;;;;;5.47;2.30;;;;;;;36.49;13.89;99110.31;4931196;28;106557;-61
2021/11/03 11:27:27;;;;;;;3.97;1.92;;;;;;;35.91;14.46;99102.97;4929953;28;106518;-61
2021/11/03 11:30:16;;;;;;;3.17;2.17;;;;;;;36.75;13.41;99112.28;4929703;28;106146;-62
2021/11/03 11:32:59;;;;;;;4.25;1.80;;;;;;;37.43;13.13;99118.03;4929763;28;106331;-64
2021/11/03 11:35:52;;;;;;;4.00;1.92;;;;;;;37.79;12.55;99105.75;4930293;28;106624;-62
2021/11/03 11:38:49;;;;;;;4.72;1.98;;;;;;;38.70;12.44;99108.97;4929643;28;106480;-61
2021/11/03 11:41:36;;;;;;;3.33;1.70;;;;;;;39.78;11.70;99103.13;4929472;28;106038;-65
2021/11/03 11:44:26;;;;;;;17.02;9.23;;;;;;;38.97;11.66;99111.50;4931361;28;107188;-61
2021/11/03 11:46:52;;;;;;;9.15;5.05;;;;;;;37.38;12.80;99121.13;4934579;28;106054;-61
2021/11/03 11:49:26;;;;;;;5.40;2.53;;;;;;;36.76;13.33;99108.34;4941037;28;106121;-62
2021/11/03 11:51:57;;;;;;;3.90;2.55;;;;;;;36.74;13.16;99107.94;4939719;28;106713;-61
2021/11/03 11:54:34;;;;;;;3.92;2.58;;;;;;;36.11;13.24;99114.81;4933850;28;106165;-69
2021/11/03 11:57:11;;;;;;;5.68;2.67;;;;;;;34.70;14.43;99097.22;4930514;28;106075;-66
2021/11/03 11:59:55;;;;;;;5.57;3.45;;;;;;;34.95;14.36;99095.06;4929785;28;106364;-62
2021/11/03 12:02:22;;;;;;;4.88;2.90;;;;;;;34.78;14.30;99099.00;4928944;28;106944;-64
2021/11/03 12:04:48;;;;;;;4.28;2.22;;;;;;;34.80;14.51;99106.94;4929222;28;107180;-60
2021/11/03 12:07:18;;;;;;;3.72;2.30;;;;;;;34.15;14.45;99099.84;4929871;28;106631;-62
2021/11/03 12:10:12;;;;;;;3.83;2.30;;;;;;;32.92;15.18;99104.63;4929364;28;106313;-63
2021/11/03 12:13:04;;;;;;;7.63;2.42;;;;;;;31.92;16.21;99094.63;4928730;28;105979;-68
2021/11/03 12:15:43;;;;;;;2.85;2.05;;;;;;;30.24;17.25;99096.06;4928698;28;106015;-64
2021/11/03 12:18:40;;;;;;;4.65;1.95;;;;;;;29.54;17.87;99091.50;4929555;28;106220;-61
2021/11/03 12:21:13;;;;;;;4.25;2.05;;;;;;;29.69;17.59;99097.63;4929401;28;106705;-62
2021/11/03 12:23:51;;;;;;;7.63;3.15;;;;;;;29.77;17.83;99094.06;4928719;28;106139;-63
2021/11/03 12:26:25;;;;;;;6.45;3.58;;;;;;;29.94;17.69;99086.94;4928975;28;106455;-61
2021/11/03 12:28:56;;;;;;;5.72;3.63;;;;;;;28.69;18.90;99078.97;4929609;28;106126;-62
2021/11/03 12:31:41;;;;;;;5.15;3.85;;;;;;;28.19;19.75;99073.78;4928714;28;106232;-64
2021/11/03 12:34:07;;;;;;;4.95;3.03;;;;;;;28.69;19.90;99076.25;4924229;28;106936;-65
2021/11/03 12:36:42;;;;;;;4.63;2.50;;;;;;;29.01;19.35;99074.19;4929125;28;106406;-62
2021/11/03 12:39:12;;;;;;;6.03;3.10;;;;;;;29.75;19.34;99065.31;4929047;28;106380;-62
2021/11/03 12:41:47;;;;;;;5.32;2.35;;;;;;;30.21;18.42;99059.06;4929103;28;106033;-62
2021/11/03 12:44:21;;;;;;;6.80;4.25;;;;;;;30.33;18.28;99052.88;4928335;28;105971;-61
2021/11/03 12:46:47;;;;;;;2.55;1.73;;;;;;;30.74;18.04;99049.78;4928592;28;106439;-62
2021/11/03 12:49:19;;;;;;;6.60;2.65;;;;;;;30.99;17.83;99051.53;4929667;28;106108;-62
2021/11/03 12:51:51;;;;;;;3.28;2.35;;;;;;;30.47;18.07;99046.38;4928325;28;106118;-65
2021/11/03 12:54:20;;;;;;;4.32;2.28;;;;;;;28.67;19.48;99063.97;4927995;28;106769;-62
2021/11/03 12:57:01;;;;;;;7.30;2.75;;;;;;;26.41;21.58;99054.56;4928149;28;106456;-61
2021/11/03 12:59:35;;;;;;;4.45;2.65;;;;;;;24.77;23.61;99064.25;4928894;28;106238;-64
2021/11/03 13:02:02;;;;;;;5.28;3.42;;;;;;;23.77;25.03;99063.88;4928658;28;106797;-67
2021/11/03 13:04:34;;;;;;;8.43;3.90;;;;;;;22.75;26.11;99058.81;4927847;28;107324;-61
2021/11/03 13:07:06;;;;;;;8.40;3.50;;;;;;;21.97;27.30;99063.63;4928253;28;106317;-64
2021/11/03 13:09:43;;;;;;;4.95;3.50;;;;;;;21.13;28.07;99060.31;4929328;28;106003;-60
2021/11/03 13:12:26;;;;;;;5.43;3.28;;;;;;;20.24;29.66;99054.78;4928400;28;105993;-60
2021/11/03 13:14:54;;;;;;;7.28;3.45;;;;;;;20.38;30.16;99055.13;4927880;28;106591;-61
2021/11/03 13:17:26;;;;;;;5.95;3.05;;;;;;;22.76;28.31;99046.88;4927964;28;106332;-61
2021/11/03 13:19:52;;;;;;;5.53;3.50;;;;;;;25.77;24.66;99040.72;4928486;28;106089;-61
2021/11/03 13:22:40;;;;;;;8.25;3.58;;;;;;;28.10;21.96;99043.59;4927810;28;106305;-60
2021/11/03 13:25:08;;;;;;;6.15;3.60;;;;;;;29.92;20.44;99039.78;4928183;28;106965;-60
2021/11/03 13:27:36;;;;;;;6.85;3.30;;;;;;;31.35;18.94;99022.63;4927212;28;106738;-61
2021/11/03 13:30:08;;;;;;;5.00;3.53;;;;;;;31.73;18.36;99020.84;4928302;28;106465;-61
2021/11/03 13:32:35;;;;;;;4.07;2.92;;;;;;;32.36;18.23;99026.06;4927141;28;106169;-62
2021/11/03 13:35:07;;;;;;;4.97;3.40;;;;;;;32.64;18.01;99025.34;4927568;28;107340;-61
2021/11/03 13:37:41;;;;;;;9.18;3.40;;;;;;;32.25;18.11;99019.44;4927743;28;106165;-63
2021/11/03 13:40:09;;;;;;;11.57;6.90;;;;;;;32.76;17.80;99015.50;4928199;28;105909;-65
2021/11/03 13:42:44;;;;;;;6.63;2.97;;;;;;;32.93;17.59;99012.47;4927848;28;105851;-66
2021/11/03 13:45:09;;;;;;;7.32;4.80;;;;;;;32.25;17.92;99013.91;4927492;28;106802;-63
2021/11/03 13:47:36;;;;;;;5.18;3.30;;;;;;;30.44;19.37;99009.41;4927049;28;106526;-62
2021/11/03 13:50:22;;;;;;;4.80;2.80;;;;;;;28.10;21.43;99004.47;4927959;28;106107;-61
2021/11/03 13:53:07;;;;;;;7.32;3.05;;;;;;;26.12;23.39;99001.09;4928438;28;106413;-62
2021/11/03 14:42:56;;;;;;;7.68;3.65;;;;;;;13.46;40.84;99034.13;5025011;28;106419;-62
2021/11/03 14:45:23;;;;;;;6.10;3.17;;;;;;;13.22;42.54;99033.84;5024947;27;105918;-60
2021/11/03 14:47:49;;;;;;;4.53;3.28;;;;;;;13.08;43.37;99032.28;4985397;28;106110;-59
2021/11/03 14:50:18;;;;;;;8.10;4.30;;;;;;;12.94;44.41;99039.56;4985311;28;105920;-60
2021/11/03 14:52:44;;;;;;;5.82;3.45;;;;;;;12.83;45.29;99031.16;4984867;28;105900;-60
2021/11/03 14:55:27;;;;;;;7.40;4.10;;;;;;;12.76;45.79;99041.06;4985932;28;105904;-60
2021/11/03 14:57:53;;;;;;;5.80;3.40;;;;;;;12.69;45.78;99048.31;4985143;28;105846;-60
2021/11/03 15:00:24;;;;;;;7.95;5.25;;;;;;;12.61;46.88;99053.88;4984797;28;106590;-63
2021/11/03 15:02:55;;;;;;;9.05;5.20;;;;;;;12.58;46.78;99054.31;4985194;28;106155;-59
2021/11/03 15:05:23;;;;;;;7.78;4.65;;;;;;;12.52;47.05;99058.63;5005542;28;105853;-60
2021/11/03 15:07:48;;;;;;;7.75;5.25;;;;;;;12.45;47.84;99049.81;5004905;28;106121;-62
2021/11/03 15:10:16;;;;;;;8.63;5.22;;;;;;;12.37;47.88;99040.22;5004403;28;106078;-65
2021/11/03 15:12:42;;;;;;;10.25;5.72;;;;;;;12.29;48.35;99045.78;5007345;28;105992;-61
2021/11/03 15:15:09;;;;;;;8.50;6.00;;;;;;;12.20;48.88;99042.50;5021986;27;105960;-63
2021/11/03 15:17:35;;;;;;;10.65;6.90;;;;;;;12.12;49.66;99038.19;5016537;28;106355;-65
2021/11/03 15:20:09;;;;;;;11.18;7.40;;;;;;;12.06;49.94;99044.38;5008270;28;105900;-66
2021/11/03 15:22:35;;;;;;;12.43;7.00;;;;;;;11.99;50.16;99041.72;4990500;28;105869;-60
2021/11/03 15:25:00;;;;;;;14.48;7.53;;;;;;;11.92;50.64;99045.38;5017545;27;105832;-60
2021/11/03 15:27:26;;;;;;;12.18;6.63;;;;;;;11.88;50.80;99036.16;5015186;28;106248;-60
2021/11/03 15:29:52;;;;;;;12.77;6.95;;;;;;;11.81;51.46;99031.66;5009357;27;106602;-60
2021/11/03 15:32:24;;;;;;;15.10;7.53;;;;;;;11.74;51.66;99028.19;5020634;28;106215;-61
2021/11/03 15:34:50;;;;;;;15.75;7.75;;;;;;;11.71;52.04;99025.91;5010362;28;106217;-63
2021/11/03 15:37:32;;;;;;;16.80;8.20;;;;;;;11.65;52.71;99016.06;5014625;27;106155;-63
2021/11/03 15:40:20;;;;;;;20.70;7.80;;;;;;;11.59;52.59;99023.06;5018198;28;105860;-66
2021/11/03 15:42:48;;;;;;;13.48;7.40;;;;;;;11.52;52.87;99009.72;4993965;28;106186;-61
2021/11/03 15:45:14;;;;;;;15.88;6.97;;;;;;;11.46;52.91;99010.53;5015637;27;105895;-61
2021/11/03 15:47:42;;;;;;;12.88;6.78;;;;;;;11.40;53.35;99014.03;5016472;28;106296;-64
2021/11/03 15:50:17;;;;;;;15.02;6.32;;;;;;;11.33;53.73;99002.50;5007124;27;105982;-60
2021/11/03 15:52:43;;;;;;;15.38;6.72;;;;;;;11.27;54.31;99006.00;5014252;28;105909;-70
2021/11/03 15:55:13;;;;;;;14.30;6.78;;;;;;;11.22;54.61;99003.97;4999844;28;105844;-60
2021/11/03 15:57:38;;;;;;;13.32;6.40;;;;;;;11.19;54.60;99009.69;4998014;28;106262;-70
2021/11/03 16:00:05;;;;;;;12.95;6.30;;;;;;;11.17;55.09;98998.41;5006468;28;106020;-65
2021/11/03 16:02:31;;;;;;;14.48;5.97;;;;;;;11.13;55.68;98998.00;4992825;28;106214;-62
2021/11/03 16:04:57;;;;;;;18.00;6.70;;;;;;;11.11;55.47;98997.38;5004489;28;106069;-64
2021/11/03 16:07:24;;;;;;;8.80;5.32;;;;;;;11.08;55.95;99003.09;4990336;28;106728;-60
2021/11/03 16:09:54;;;;;;;12.15;6.90;;;;;;;11.04;55.85;99012.53;5004117;28;105771;-63
2021/11/03 16:12:22;;;;;;;13.70;6.40;;;;;;;11.01;56.33;99007.59;4993111;28;106136;-66
2021/11/03 16:14:49;;;;;;;14.68;7.03;;;;;;;11.00;56.61;99000.63;5005370;28;106024;-61
2021/11/03 16:17:24;;;;;;;12.10;6.32;;;;;;;10.98;56.60;99008.03;4999532;28;106209;-62
2021/11/03 16:19:50;;;;;;;15.48;7.30;;;;;;;10.96;57.24;99002.06;4995970;28;106487;-61
2021/11/03 16:22:22;;;;;;;17.60;8.02;;;;;;;10.94;57.19;99006.78;5006447;28;105937;-63
2021/11/03 16:24:49;;;;;;;17.70;7.88;;;;;;;10.91;57.07;99001.88;4991176;28;105837;-64
2021/11/03 16:27:18;;;;;;;15.98;8.20;;;;;;;10.89;57.60;99009.22;4999553;28;106730;-64
2021/11/03 16:29:44;;;;;;;17.65;8.32;;;;;;;10.88;57.75;99005.75;4996654;28;106988;-62
2021/11/03 16:32:09;;;;;;;20.85;9.07;;;;;;;10.87;57.34;99013.91;5006524;28;105933;-60
2021/11/03 16:34:34;;;;;;;19.70;9.77;;;;;;;10.85;57.93;99014.13;4994485;28;106129;-60
2021/11/03 16:37:00;;;;;;;26.40;14.50;;;;;;;10.86;57.90;99014.97;5003027;28;106165;-66
2021/11/03 16:39:27;;;;;;;21.33;11.70;;;;;;;10.88;58.04;99018.22;4999791;28;106574;-60
2021/11/03 16:42:31;;;;;;;22.13;10.70;;;;;;;10.87;57.97;99017.41;4993915;28;106707;-59
2021/11/03 16:45:04;;;;;;;22.55;11.25;;;;;;;10.87;58.33;99022.75;4983304;28;106046;-67
2021/11/03 16:47:32;;;;;;;25.00;11.23;;;;;;;10.84;58.31;99023.97;4997693;28;105924;-60
2021/11/03 16:49:58;;;;;;;18.05;10.20;;;;;;;10.83;58.74;99016.19;5004158;28;107237;-63
2021/11/03 16:52:24;;;;;;;21.63;11.63;;;;;;;10.79;58.29;99012.28;4992717;28;106021;-59
2021/11/03 16:54:50;;;;;;;24.27;12.35;;;;;;;10.73;58.75;99013.06;5003864;28;105816;-63
2021/11/03 16:57:16;;;;;;;21.10;12.68;;;;;;;10.68;58.81;99021.66;4998655;28;106064;-65
2021/11/03 16:59:41;;;;;;;23.48;13.25;;;;;;;10.66;59.03;99010.38;4995972;28;106011;-59
2021/11/03 17:02:07;;;;;;;22.33;13.13;;;;;;;10.63;59.46;99016.09;5005519;28;106984;-65
2021/11/03 17:04:32;;;;;;;28.80;13.32;;;;;;;10.61;59.75;99016.31;4975018;28;106391;-60
2021/11/03 17:07:03;;;;;;;29.23;14.10;;;;;;;10.62;59.75;99017.13;5002205;28;106009;-59
2021/11/03 17:09:32;;;;;;;28.45;13.20;;;;;;;10.64;59.87;99015.09;4999826;28;105738;-62
2021/11/03 17:11:58;;;;;;;24.13;10.70;;;;;;;10.63;60.10;99016.09;4992806;28;106056;-60
2021/11/03 17:14:29;;;;;;;19.83;11.20;;;;;;;10.63;60.30;99014.28;5005198;28;106171;-59
2021/11/03 17:16:55;;;;;;;15.52;9.32;;;;;;;10.63;60.52;99005.44;4990979;28;106044;-62
2021/11/03 17:19:24;;;;;;;19.17;9.60;;;;;;;10.63;60.53;99008.97;4991354;28;105691;-62
2021/11/03 17:21:51;;;;;;;19.20;9.20;;;;;;;10.63;60.65;99011.63;4989067;28;105944;-63
2021/11/03 17:24:19;;;;;;;16.25;9.32;;;;;;;10.65;60.59;99009.56;4990044;28;105951;-60
2021/11/03 17:26:49;;;;;;;17.85;9.45;;;;;;;10.65;60.96;99000.75;4989314;28;106121;-60
2021/11/03 17:29:23;;;;;;;20.08;10.18;;;;;;;10.65;61.08;99003.44;4985212;28;106281;-70
2021/11/03 17:31:52;;;;;;;14.18;9.38;;;;;;;10.63;60.77;98992.13;5000430;28;106138;-61
2021/11/03 17:34:17;;;;;;;19.17;10.05;;;;;;;10.61;60.79;98991.53;5008565;28;105894;-61
2021/11/03 17:36:43;;;;;;;17.38;9.10;;;;;;;10.60;61.18;98979.22;5007434;28;106448;-62
2021/11/03 17:39:09;;;;;;;17.80;9.43;;;;;;;10.59;61.42;98982.91;5007174;28;106090;-62
2021/11/03 17:41:37;;;;;;;17.55;9.60;;;;;;;10.58;61.54;98981.25;5006743;28;106040;-61
2021/11/03 17:44:17;;;;;;;18.95;10.18;;;;;;;10.59;61.05;98982.91;5008362;28;106072;-62
2021/11/03 17:46:43;;;;;;;21.25;9.20;;;;;;;10.58;61.53;98986.59;5007321;28;106341;-61
2021/11/03 17:49:18;;;;;;;17.73;9.15;;;;;;;10.57;61.92;98985.78;4988184;28;106015;-60
2021/11/03 17:51:43;;;;;;;17.60;9.32;;;;;;;10.55;61.70;98982.50;4994392;28;106108;-60
2021/11/03 17:54:09;;;;;;;18.00;9.63;;;;;;;10.54;61.90;98980.00;5004919;28;105946;-60
2021/11/03 17:56:36;;;;;;;15.60;8.02;;;;;;;10.51;62.18;98967.91;5007900;28;106148;-60
2021/11/03 17:59:03;;;;;;;16.92;8.85;;;;;;;10.51;61.99;98965.25;5004148;28;106289;-61
2021/11/03 18:01:31;;;;;;;16.08;8.02;;;;;;;10.50;62.32;98967.09;5007066;28;106264;-60
2021/11/03 18:03:57;;;;;;;21.70;13.07;;;;;;;10.50;62.48;98966.28;5007911;28;106109;-60
2021/11/03 18:06:23;;;;;;;19.83;8.27;;;;;;;10.49;62.21;98964.66;5006745;28;106148;-60
2021/11/03 18:08:48;;;;;;;16.63;8.80;;;;;;;10.48;62.54;98960.34;5006933;28;106213;-59
2021/11/03 18:11:21;;;;;;;15.05;8.73;;;;;;;10.47;62.70;98962.19;5006895;28;108579;-60
2021/11/03 18:13:50;;;;;;;19.55;9.57;;;;;;;10.46;62.51;98959.72;5007775;28;106153;-61
2021/11/03 18:16:16;;;;;;;18.73;10.20;;;;;;;10.45;62.79;98963.41;5006505;28;106582;-60
2021/11/03 18:18:41;;;;;;;21.60;11.43;;;;;;;10.44;62.78;98959.09;5006260;28;106038;-60
2021/11/03 18:21:08;;;;;;;20.70;10.45;;;;;;;10.42;62.82;98961.97;5006061;28;105948;-61
2021/11/03 18:23:34;;;;;;;16.08;10.30;;;;;;;10.43;62.92;98962.78;5006597;28;106005;-61
2021/11/03 18:26:12;;;;;;;14.70;9.00;;;;;;;10.42;63.11;98969.94;5006399;28;105989;-64